Flight Track Log - Related Links

Times and Time Zones

All times are in EDT time to prevent confusion due to time zone crossing. See the FFT403 flight status page for this flight to view local times or setup timezone preferences in your user account.

Time Position Orientation Groundspeed Altitude Reporting Facility
EDT Latitude Longitude Course Direction KTS MPH feet Rate Location/Type
Tue 10:54:27 AM 39.8333 -104.7667 252° West 181 208 7,000  Level Denver TRACON
Tue 10:55:28 AM 39.8167 -104.8333 252° West 242 278 7,800 1,041 Climbing Denver TRACON
Tue 10:56:05 AM 39.8025 -104.8969 254° West 262 302 8,700 1,939 Climbing Denver Center
Tue 10:57:07 AM 39.7756 -104.9967 251° West 288 331 11,000 1,887 Climbing Denver Center
Tue 10:58:09 AM 39.7392 -105.1022 246° West 324 373 12,600 1,935 Climbing Denver Center
Tue 10:59:11 AM 39.6967 -105.2225 245° Southwest 339 390 15,000 1,984 Climbing Denver Center
Tue 11:00:13 AM 39.6550 -105.3375 245° Southwest 352 405 16,700 1,790 Climbing Denver Center
Tue 11:01:15 AM 39.6092 -105.4656 245° Southwest 366 421 18,700 1,645 Climbing Denver Center
Tue 11:02:17 AM 39.5642 -105.5856 244° Southwest 370 426 20,100 1,645 Climbing Denver Center
Tue 11:03:19 AM 39.5217 -105.7228 248° West 380 437 22,100 1,742 Climbing Denver Center
Tue 11:04:21 AM 39.4889 -105.8467 251° West 373 429 23,700 1,355 Climbing Denver Center
Tue 11:05:23 AM 39.4533 -105.9775 251° West 380 437 24,900 1,452 Climbing Denver Center
Tue 11:06:25 AM 39.4161 -106.1108 250° West 389 448 26,700 1,742 Climbing Denver Center
Tue 11:07:27 AM 39.3769 -106.2503 250° West 377 434 28,500 1,306 Climbing Denver Center
Tue 11:08:29 AM 39.3369 -106.3919 250° West 377 434 29,400 677 Climbing Denver Center
Tue 11:09:31 AM 39.2911 -106.5139 244° Southwest 391 450 29,900 484 Climbing Denver Center
Tue 11:10:33 AM 39.2333 -106.6325 238° Southwest 406 467 30,400 532 Climbing Denver Center
Tue 11:11:35 AM 39.1664 -106.7772 239° Southwest 419 482 31,000 1,065 Climbing Denver Center
Tue 11:12:37 AM 39.1072 -106.9031 239° Southwest 427 491 32,600 1,258 Climbing Denver Center
Tue 11:13:39 AM 39.0431 -107.0389 239° Southwest 402 463 33,600 1,065 Climbing Denver Center
Tue 11:14:41 AM 38.9872 -107.1556 238° Southwest 400 460 34,800 816 Climbing Denver Center
Tue 11:15:44 AM 38.9228 -107.2906 238° Southwest 398 458 35,300 480 Climbing Denver Center
Tue 11:16:46 AM 38.8681 -107.4033 238° Southwest 390 449 35,800 339 Climbing Denver Center
Tue 11:17:48 AM 38.8039 -107.5378 239° Southwest 394 453 36,000 98 Climbing Denver Center
Tue 11:18:49 AM 38.7556 -107.6375 238° Southwest 403 464 36,000  Level Denver Center
Tue 11:19:52 AM 38.6800 -107.7922 238° Southwest 403 464 36,000  Level Denver Center
Tue 11:20:54 AM 38.6242 -107.9069 238° Southwest 398 458 36,000  Level Denver Center
Tue 11:21:56 AM 38.5683 -108.0214 238° Southwest 395 455 36,000  Level Denver Center
Tue 11:22:58 AM 38.5039 -108.1533 238° Southwest 393 452 36,000  Level Denver Center
Tue 11:24:00 AM 38.4469 -108.2706 238° Southwest 400 460 36,000  Level Denver Center
Tue 11:25:02 AM 38.3828 -108.4011 238° Southwest 392 451 36,000  Level Denver Center
Tue 11:26:04 AM 38.3267 -108.5133 238° Southwest 391 450 36,000  Level Denver Center
Tue 11:27:06 AM 38.2608 -108.6450 238° Southwest 392 451 36,000  Level Denver Center
Tue 11:28:08 AM 38.2053 -108.7561 238° Southwest 388 447 36,000  Level Denver Center
Tue 11:29:10 AM 38.1397 -108.8864 237° Southwest 390 449 36,000  Level Denver Center
Tue 11:30:12 AM 38.0839 -108.9956 237° Southwest 387 445 36,000  Level Denver Center
Tue 11:31:14 AM 38.0253 -109.1128 238° Southwest 388 447 36,000 48 Level Denver Center
Tue 11:32:16 AM 37.9592 -109.2414 237° Southwest 391 450 36,100  Climbing Denver Center
Tue 11:33:18 AM 37.9042 -109.3517 238° Southwest 388 447 36,000 -48 Descending Denver Center
Tue 11:34:20 AM 37.8386 -109.4786 237° Southwest 385 443 36,000  Level Denver Center
Tue 11:35:22 AM 37.7836 -109.5844 237° Southwest 379 436 36,000  Level Denver Center
Tue 11:36:24 AM 37.7189 -109.7100 237° Southwest 381 438 36,000  Level Denver Center
Tue 11:37:26 AM 37.6628 -109.8194 237° Southwest 385 443 36,000  Level Denver Center
Tue 11:38:28 AM 37.5972 -109.9461 237° Southwest 387 445 36,000  Level Denver Center
Tue 11:39:30 AM 37.5419 -110.0519 237° Southwest 381 438 36,000  Level Denver Center
Tue 11:40:32 AM 37.4769 -110.1761 237° Southwest 379 436 36,000  Level Denver Center
Tue 11:41:35 AM 37.4244 -110.2764 237° Southwest 378 435 36,000  Level Denver Center
Tue 11:42:37 AM 37.3664 -110.3869 237° Southwest 378 435 36,000  Level Denver Center
Tue 11:43:39 AM 37.3086 -110.4975 237° Southwest 378 435 36,000  Level Denver Center
Tue 11:44:41 AM 37.2392 -110.6286 236° Southwest 377 434 36,000  Level Denver Center
Tue 11:45:43 AM 37.1819 -110.7358 236° Southwest 370 426 36,000  Level Denver Center
Tue 11:46:45 AM 37.1242 -110.8447 236° Southwest 374 430 36,000  Level Denver Center
Tue 11:47:47 AM 37.0664 -110.9542 237° Southwest 377 434 36,000 48 Level Denver Center
Tue 11:48:49 AM 37.0067 -111.0636 236° Southwest 380 437 36,100  Climbing Denver Center
Tue 11:49:51 AM 36.9472 -111.1747 236° Southwest 383 441 36,000 -48 Descending Denver Center
Tue 11:50:53 AM 36.8778 -111.3036 236° Southwest 374 430 36,000  Level Denver Center
Tue 11:51:55 AM 36.8206 -111.4128 237° Southwest 374 430 36,000  Level Denver Center
Tue 11:52:57 AM 36.7611 -111.5203 235° Southwest 376 433 36,000  Level Denver Center
Tue 11:53:59 AM 36.7031 -111.6267 236° Southwest 373 429 36,000  Level Denver Center
Tue 11:55:01 AM 36.6439 -111.7339 236° Southwest 373 429 36,000  Level Denver Center
Tue 11:56:03 AM 36.5847 -111.8406 235° Southwest 373 429 36,000 71 Level Denver Center
Tue 11:56:26 AM 36.5589 -111.8858 235° Southwest 375 432 36,100  Climbing Los Angeles Center
Tue 11:57:28 AM 36.4981 -112.0169 240° Southwest 367 422 36,000 -48 Descending Los Angeles Center
Tue 11:58:30 AM 36.4500 -112.1275 242° Southwest 364 419 36,000  Level Los Angeles Center
Tue 11:59:32 AM 36.4106 -112.2178 242° Southwest 368 423 36,000 48 Level Los Angeles Center
Tue 12:00:34 PM 36.3519 -112.3531 242° Southwest 371 427 36,100 48 Climbing Los Angeles Center
Tue 12:01:36 PM 36.3017 -112.4658 241° Southwest 373 429 36,100 -48 Level Los Angeles Center
Tue 12:02:38 PM 36.2528 -112.5781 242° Southwest 370 426 36,000 -44 Descending Los Angeles Center
Tue 12:03:52 PM 36.2033 -112.6892 241° Southwest 367 422 36,000  Level Los Angeles Center
Tue 12:04:54 PM 36.1333 -112.8453 241° Southwest 369 425 36,000  Level Los Angeles Center
Tue 12:05:56 PM 36.0847 -112.9558 241° Southwest 368 423 36,000  Level Los Angeles Center
Tue 12:06:58 PM 36.0347 -113.0678 241° Southwest 369 425 36,000  Level Los Angeles Center
Tue 12:08:00 PM 35.9850 -113.1794 241° Southwest 370 426 36,000  Level Los Angeles Center
Tue 12:09:02 PM 35.9294 -113.2992 240° Southwest 382 440 36,000  Level Los Angeles Center
Tue 12:10:04 PM 35.8786 -113.4125 241° Southwest 382 440 36,000  Level Los Angeles Center
Tue 12:11:06 PM 35.8275 -113.5261 241° Southwest 384 442 36,000 48 Level Los Angeles Center
Tue 12:12:08 PM 35.7736 -113.6453 241° Southwest 385 443 36,100  Climbing Los Angeles Center
Tue 12:13:10 PM 35.7100 -113.7806 240° Southwest 381 438 36,000 -48 Descending Los Angeles Center
Tue 12:14:12 PM 35.6633 -113.8853 241° Southwest 377 434 36,000  Level Los Angeles Center
Tue 12:15:14 PM 35.6117 -113.9958 240° Southwest 376 433 36,000  Level Los Angeles Center
Tue 12:16:16 PM 35.5606 -114.1081 241° Southwest 377 434 36,000  Level Los Angeles Center
Tue 12:17:17 PM 35.5186 -114.1972 240° Southwest 379 436 36,000  Level Los Angeles Center
Tue 12:18:20 PM 35.4511 -114.3433 240° Southwest 380 437 36,000  Level Los Angeles Center
Tue 12:19:21 PM 35.3978 -114.4586 240° Southwest 386 444 36,000  Level Los Angeles Center
Tue 12:20:23 PM 35.3331 -114.5958 240° Southwest 385 443 36,000  Level Los Angeles Center
Tue 12:21:25 PM 35.2781 -114.7103 240° Southwest 389 448 36,000  Level Los Angeles Center
Tue 12:22:28 PM 35.2244 -114.8239 240° Southwest 385 443 36,000  Level Los Angeles Center
Tue 12:23:29 PM 35.1717 -114.9364 240° Southwest 382 440 36,000  Level Los Angeles Center
Tue 12:24:31 PM 35.1175 -115.0500 240° Southwest 382 440 36,000  Level Los Angeles Center
Tue 12:25:33 PM 35.0639 -115.1644 240° Southwest 386 444 36,000 -48 Level Los Angeles Center
Tue 12:26:35 PM 35.0025 -115.2906 239° Southwest 381 438 35,900 -339 Descending Los Angeles Center
Tue 12:27:37 PM 34.9483 -115.4019 239° Southwest 381 438 35,300 -629 Descending Los Angeles Center
Tue 12:28:39 PM 34.8942 -115.5167 240° Southwest 370 426 34,600 -677 Descending Los Angeles Center
Tue 12:29:41 PM 34.8458 -115.6172 240° Southwest 369 425 33,900 -629 Descending Los Angeles Center
Tue 12:30:43 PM 34.7947 -115.7214 239° Southwest 362 417 33,300 -629 Descending Los Angeles Center
Tue 12:31:45 PM 34.7433 -115.8278 240° Southwest 364 419 32,600 -726 Descending Los Angeles Center
Tue 12:32:47 PM 34.6797 -115.9572 239° Southwest 370 426 31,800 -726 Descending Los Angeles Center
Tue 12:33:49 PM 34.6281 -116.0656 240° Southwest 371 427 31,100 -677 Descending Los Angeles Center
Tue 12:34:51 PM 34.5736 -116.1736 239° Southwest 373 429 30,400 -532 Descending Los Angeles Center
Tue 12:35:53 PM 34.5181 -116.2831 238° Southwest 378 435 30,000 -194 Descending Los Angeles Center
Tue 12:36:55 PM 34.4658 -116.3925 240° Southwest 377 434 30,000  Level Los Angeles Center
Tue 12:37:57 PM 34.4114 -116.4997 238° Southwest 374 430 30,000 -146 Level Los Angeles Center
Tue 12:38:58 PM 34.3586 -116.6078 239° Southwest 373 429 29,700 -1,317 Descending Los Angeles Center
Tue 12:40:00 PM 34.2953 -116.7353 239° Southwest 371 427 27,300 -2,274 Descending Los Angeles Center
Tue 12:41:02 PM 34.2425 -116.8383 238° Southwest 366 421 25,000 -2,032 Descending Los Angeles Center
Tue 12:42:04 PM 34.1919 -116.9406 239° Southwest 359 413 23,100 -2,226 Descending Los Angeles Center
Tue 12:43:06 PM 34.1408 -117.0411 238° Southwest 354 407 20,400 -2,550 Descending Los Angeles Center
Tue 12:43:24 PM 34.1167 -117.0833 235° Southwest 350 403 19,700 -2,000 Descending Southern California TRACON
Tue 12:44:18 PM 34.0833 -117.1667 244° Southwest 342 394 18,000 -1,737 Descending Southern California TRACON
Tue 12:45:18 PM 34.0500 -117.2833 251° West 354 407 16,400 -1,700 Descending Southern California TRACON
Tue 12:46:18 PM 34.0333 -117.4000 260° West 350 403 14,600 -1,400 Descending Southern California TRACON
Tue 12:47:18 PM 34.0333 -117.5000 270° West 306 352 13,600 -942 Descending Southern California TRACON
Tue 12:48:19 PM 34.0333 -117.6000 270° West 287 330 12,700 -1,339 Descending Southern California TRACON
Tue 12:49:19 PM 34.0167 -117.7000 259° West 263 303 10,900 -1,700 Descending Southern California TRACON
Tue 12:50:19 PM 34.0167 -117.8000 270° West 275 316 9,300 -1,550 Descending Southern California TRACON
Tue 12:51:19 PM 34.0000 -117.8833 256° West 280 322 7,800 -1,190 Descending Southern California TRACON
Tue 12:52:25 PM 34.0000 -117.9833 270° West 249 287 6,800 -1,000 Descending Southern California TRACON
Tue 12:53:19 PM 33.9833 -118.0500 253° West 243 280 5,800 -1,043 Descending Southern California TRACON
Tue 12:54:20 PM 33.9833 -118.1333 270° West 210 242 4,800 -1,181 Descending Southern California TRACON
Tue 12:55:26 PM 33.9667 -118.2000 253° West 202 232 3,300 -1,200 Descending Southern California TRACON
Tue 12:56:25 PM 33.9667 -118.2667 270° West 203 234 2,300 -1,000 Descending Southern California TRACON
Tue 12:57:20 PM 33.9667 -118.3333 270° West 186 214 1,400 -963 Descending Southern California TRACON
Tue 12:57:46 PM 33.9583 -118.3492 238° Southwest 187 215 1,000 -809 Descending Los Angeles Center
Tue 12:58:49 PM 33.9528 -118.3978 262° West 161 185 200 -762 Descending Los Angeles Center
Tue 01:00:00 PM 33.9333 -118.4000 259° West  Level FlightAware Approximate
Tue 01:07:00 PM 33.9425 -118.4081 259° West  Level Estimated

Login

Don't have an account? Register now (free) for customized features, flight alerts, and more!